OJAQ/AQJ METAR and TAF weather

Enter ICAO airport designator
Station Type Date Time Source
OJAQ METAR 2018/12/13 06:00 UTC NOAA

OJAQ 130600Z 36006KT CAVOK 14/07 Q1024 NOSIG


Station Type Date Time Source
OJAQ Decoded METAR 2018/12/13 06:00 UTC NOAA

Aqaba Airport, Jordan (OJAQ) 29-38N 035-01E 51M
Dec 13, 2018 - 01:00 AM EST / 2018.12.13 0600 UTC
Wind: from the N (360 degrees) at 7 MPH (6 KT):0
Visibility: greater than 7 mile(s):0
Temperature: 57 F (14 C)
Dew Point: 44 F (7 C)
Relative Humidity: 62%
Pressure (altimeter): 30.24 in. Hg (1024 hPa)
ob: OJAQ 130600Z 36006KT CAVOK 14/07 Q1024 NOSIG
cycle: 6

Station Type Date Time Source
OJAQ TAF 2018/12/13 06:15 UTC NOAA

TAF TAF OJAQ 130450Z 1306/1412 VRB02KT 8000 NSC
BECMG 1310/13112 36015KT 6000 SCT040


Example: see airport list